Time;durP1;ratioP1;P1;durP2;ratioP2;P2;SDS_P1;SDS_P2;PMS_P1;PMS_P2;Temp;Humidity;BMP_temperature;BMP_pressure;BME280_temperature;BME280_humidity;BME280_pressure;Samples;Min_cycle;Max_cycle;Signal;HPM_P1;HPM_P2
2023/06/21 00:00:51;;;;;;;4.05;1.90;;;19.10;99.90;;;;;;5014807;28;20124;-65
2023/06/21 00:03:18;;;;;;;1.65;1.55;;;19.10;99.90;;;;;;5008245;28;20061;-64
2023/06/21 00:05:44;;;;;;;2.30;2.15;;;19.10;99.90;;;;;;5026439;28;20417;-64
2023/06/21 00:08:12;;;;;;;1.70;1.60;;;19.10;99.90;;;;;;5023656;28;20390;-65
2023/06/21 00:10:38;;;;;;;3.70;1.50;;;19.10;99.90;;;;;;5014290;28;20057;-65
2023/06/21 00:13:05;;;;;;;2.30;1.52;;;19.10;99.90;;;;;;5014507;28;20066;-65
2023/06/21 00:15:32;;;;;;;3.22;1.65;;;19.00;99.90;;;;;;5014192;28;20408;-64
2023/06/21 00:17:58;;;;;;;2.03;1.92;;;19.00;99.90;;;;;;5017506;28;20050;-64
2023/06/21 00:20:26;;;;;;;2.30;2.10;;;19.00;99.90;;;;;;5006804;28;20127;-65
2023/06/21 00:22:55;;;;;;;2.92;1.80;;;19.00;99.90;;;;;;5024707;28;20088;-65
2023/06/21 00:25:23;;;;;;;2.05;1.95;;;19.00;99.90;;;;;;5024525;28;20049;-65
2023/06/21 00:27:50;;;;;;;2.83;2.63;;;19.00;99.90;;;;;;5012486;28;20125;-64
2023/06/21 00:30:17;;;;;;;2.92;2.72;;;19.00;99.90;;;;;;5012928;28;20052;-65
2023/06/21 00:32:43;;;;;;;3.13;2.83;;;19.00;99.90;;;;;;5022009;28;20510;-65
2023/06/21 00:35:10;;;;;;;2.88;2.78;;;19.10;99.90;;;;;;5023935;28;20042;-64
2023/06/21 00:37:37;;;;;;;3.45;2.92;;;19.10;99.90;;;;;;5019474;28;20060;-65
2023/06/21 00:40:10;;;;;;;3.03;2.78;;;19.10;99.90;;;;;;5029298;28;20072;-65
2023/06/21 00:42:36;;;;;;;4.72;3.38;;;19.10;99.90;;;;;;5021945;28;20066;-65
2023/06/21 00:45:04;;;;;;;3.58;3.28;;;19.10;99.90;;;;;;5030199;28;20484;-64
2023/06/21 00:47:31;;;;;;;3.63;3.17;;;19.10;99.90;;;;;;5030163;28;20046;-65
2023/06/21 00:49:59;;;;;;;3.97;3.38;;;19.00;99.90;;;;;;5029763;28;20490;-65
2023/06/21 00:52:26;;;;;;;3.65;3.35;;;19.00;99.90;;;;;;5030090;28;20053;-65
2023/06/21 00:54:53;;;;;;;3.45;3.17;;;19.00;99.90;;;;;;5029196;28;20049;-64
2023/06/21 00:57:21;;;;;;;6.95;3.55;;;19.00;99.90;;;;;;5030545;28;20041;-64
2023/06/21 00:59:47;;;;;;;7.47;3.60;;;19.00;99.90;;;;;;5029625;28;20046;-67
2023/06/21 01:02:13;;;;;;;4.07;3.72;;;19.00;99.90;;;;;;5022897;28;20089;-67
2023/06/21 01:04:41;;;;;;;4.57;4.03;;;19.00;99.90;;;;;;5028791;28;20053;-67
2023/06/21 01:07:40;;;;;;;4.38;3.80;;;19.00;99.90;;;;;;5027655;28;20441;-67
2023/06/21 01:10:25;;;;;;;4.20;3.72;;;19.00;99.90;;;;;;5018620;28;20060;-67
2023/06/21 01:13:29;;;;;;;3.83;3.47;;;19.00;99.90;;;;;;5009408;28;20049;-67
2023/06/21 01:16:07;;;;;;;4.00;3.70;;;19.00;99.90;;;;;;5010128;28;20133;-67
2023/06/21 01:18:34;;;;;;;3.50;3.20;;;19.00;99.90;;;;;;5026637;28;20053;-67
2023/06/21 01:21:06;;;;;;;4.72;4.22;;;19.00;99.90;;;;;;5028248;28;20187;-67
2023/06/21 01:23:50;;;;;;;4.63;3.70;;;19.00;99.90;;;;;;5028458;28;20406;-67
2023/06/21 01:26:34;;;;;;;6.03;4.05;;;19.00;99.90;;;;;;5028668;28;20403;-67
2023/06/21 01:29:13;;;;;;;4.65;4.15;;;19.00;99.90;;;;;;5018163;28;20046;-67
2023/06/21 01:31:42;;;;;;;5.43;4.93;;;19.00;99.90;;;;;;5027094;28;20128;-67
2023/06/21 01:34:13;;;;;;;4.70;4.28;;;19.00;99.90;;;;;;5024732;28;20045;-67
2023/06/21 01:36:40;;;;;;;5.40;4.70;;;19.00;99.90;;;;;;5027333;28;20113;-67
2023/06/21 01:39:10;;;;;;;5.88;4.57;;;19.00;99.90;;;;;;5028251;28;20095;-67
2023/06/21 01:41:37;;;;;;;5.38;4.88;;;19.00;99.90;;;;;;5026092;28;20379;-67
2023/06/21 01:44:05;;;;;;;6.07;4.65;;;19.00;99.90;;;;;;5010527;28;20053;-67
2023/06/21 01:46:32;;;;;;;6.05;5.32;;;19.00;99.90;;;;;;5025429;28;20049;-67
2023/06/21 01:49:02;;;;;;;6.70;5.18;;;19.00;99.90;;;;;;5016578;28;20461;-67
2023/06/21 01:51:29;;;;;;;8.88;5.15;;;19.00;99.90;;;;;;5016749;28;20072;-67
2023/06/21 01:53:57;;;;;;;6.28;5.20;;;19.00;99.90;;;;;;5017328;28;20053;-67
2023/06/21 01:56:25;;;;;;;5.63;4.93;;;19.00;99.90;;;;;;5022690;28;20042;-67
2023/06/21 01:58:51;;;;;;;5.10;4.60;;;19.00;99.90;;;;;;5019933;28;20569;-66
2023/06/21 02:01:21;;;;;;;8.18;4.85;;;19.00;99.90;;;;;;5021976;28;20495;-67
2023/06/21 02:04:07;;;;;;;6.38;5.25;;;19.00;99.90;;;;;;5017395;28;20455;-67
2023/06/21 02:06:35;;;;;;;4.82;4.38;;;19.00;99.90;;;;;;5015216;28;20076;-67
2023/06/21 02:09:05;;;;;;;6.35;5.18;;;19.00;99.90;;;;;;4998735;28;20094;-67
2023/06/21 02:11:32;;;;;;;5.40;4.90;;;19.00;99.90;;;;;;5005828;28;20399;-67
2023/06/21 02:14:00;;;;;;;5.47;4.95;;;19.00;99.90;;;;;;5027218;28;20056;-66
2023/06/21 02:16:28;;;;;;;9.00;4.68;;;19.00;99.90;;;;;;5026947;28;20116;-67
2023/06/21 02:18:55;;;;;;;6.25;5.65;;;19.00;99.90;;;;;;5027021;28;20041;-67
2023/06/21 02:21:22;;;;;;;7.72;5.57;;;19.00;99.90;;;;;;5027080;28;20042;-66
2023/06/21 02:23:49;;;;;;;8.68;5.10;;;19.00;99.90;;;;;;5017849;28;20057;-67
2023/06/21 02:26:17;;;;;;;5.90;5.22;;;19.00;99.90;;;;;;5018978;28;20042;-66
2023/06/21 02:28:46;;;;;;;7.28;5.60;;;19.00;99.90;;;;;;4998337;28;20088;-67
2023/06/21 02:31:13;;;;;;;8.95;5.78;;;19.00;99.90;;;;;;5023452;28;20049;-66
2023/06/21 02:33:47;;;;;;;6.03;5.50;;;19.00;99.90;;;;;;5026633;28;20164;-67
2023/06/21 02:36:14;;;;;;;9.77;5.70;;;19.00;99.90;;;;;;5027007;28;20076;-66
2023/06/21 02:38:40;;;;;;;8.05;5.88;;;19.00;99.90;;;;;;5026960;28;20050;-67
2023/06/21 02:41:07;;;;;;;10.50;5.30;;;19.00;99.90;;;;;;5026318;28;20057;-67
2023/06/21 02:43:34;;;;;;;7.07;5.43;;;19.00;99.90;;;;;;5027102;28;20052;-66
2023/06/21 02:46:00;;;;;;;7.55;5.70;;;19.00;99.90;;;;;;5016330;28;20034;-67
2023/06/21 02:48:27;;;;;;;6.47;5.55;;;19.00;99.90;;;;;;5016546;28;20049;-67
2023/06/21 02:50:53;;;;;;;6.80;5.28;;;19.00;99.90;;;;;;5024773;28;20448;-67
2023/06/21 02:53:19;;;;;;;8.18;5.55;;;19.00;99.90;;;;;;5022800;28;20041;-66
2023/06/21 02:55:46;;;;;;;9.13;5.05;;;19.00;99.90;;;;;;5026195;28;20075;-67
2023/06/21 02:58:12;;;;;;;5.55;5.05;;;19.00;99.90;;;;;;5026552;28;20053;-67
2023/06/21 03:00:40;;;;;;;7.20;5.57;;;19.00;99.90;;;;;;5026853;28;20041;-67
2023/06/21 03:03:07;;;;;;;8.20;4.97;;;19.00;99.90;;;;;;5025460;28;20099;-67
2023/06/21 03:05:34;;;;;;;6.60;5.40;;;19.00;99.90;;;;;;5026960;28;20053;-67
2023/06/21 03:08:03;;;;;;;7.40;5.78;;;19.00;99.90;;;;;;5019299;28;20168;-66
2023/06/21 03:10:32;;;;;;;;;;;19.00;99.90;;;;;;5011367;28;20058;-66
2023/06/21 03:12:59;;;;;;;6.25;5.25;;;19.00;99.90;;;;;;5025750;28;20040;-66
2023/06/21 03:15:26;;;;;;;9.20;5.93;;;19.00;99.90;;;;;;5008849;28;20045;-66
2023/06/21 03:17:52;;;;;;;5.90;5.32;;;19.00;99.90;;;;;;5025338;28;20041;-67
2023/06/21 03:20:19;;;;;;;6.60;5.55;;;18.90;99.90;;;;;;5016425;28;20037;-67
2023/06/21 03:22:46;;;;;;;6.80;5.80;;;18.90;99.90;;;;;;5026621;28;20126;-66
2023/06/21 03:25:13;;;;;;;6.53;5.93;;;18.90;99.90;;;;;;5025365;28;20841;-66
2023/06/21 03:27:40;;;;;;;10.68;6.97;;;18.90;99.90;;;;;;5026468;28;20058;-66
2023/06/21 03:30:11;;;;;;;7.40;6.07;;;18.90;99.90;;;;;;5025147;28;20126;-66
2023/06/21 03:32:46;;;;;;;8.75;7.13;;;18.90;99.90;;;;;;5026415;28;20050;-67
2023/06/21 03:35:17;;;;;;;7.85;6.80;;;18.90;99.90;;;;;;5026171;28;20077;-66
2023/06/21 03:37:46;;;;;;;7.35;6.65;;;18.90;99.90;;;;;;5025934;28;20128;-67
2023/06/21 03:40:16;;;;;;;7.70;6.55;;;18.90;99.90;;;;;;5026264;28;20391;-67
2023/06/21 03:42:43;;;;;;;8.25;6.90;;;18.80;99.90;;;;;;5025385;28;20423;-67
2023/06/21 03:45:10;;;;;;;7.93;6.93;;;18.80;99.90;;;;;;5026010;28;20041;-66
2023/06/21 03:47:39;;;;;;;7.65;6.93;;;18.80;99.90;;;;;;5025928;28;20052;-67
2023/06/21 03:50:07;;;;;;;10.13;7.60;;;18.80;99.90;;;;;;5015772;28;20045;-67
2023/06/21 03:52:33;;;;;;;8.48;7.63;;;18.80;99.90;;;;;;5026242;28;20121;-67
2023/06/21 03:55:00;;;;;;;14.32;8.90;;;18.80;99.90;;;;;;5025278;28;20403;-67
2023/06/21 03:57:26;;;;;;;13.77;8.63;;;18.70;99.90;;;;;;5026243;28;20614;-66
2023/06/21 03:59:55;;;;;;;;;;;18.70;99.90;;;;;;5019474;28;20596;-67
2023/06/21 04:02:22;;;;;;;9.27;7.93;;;18.70;99.90;;;;;;5020695;28;19925;-67
2023/06/21 04:04:49;;;;;;;11.45;8.70;;;18.70;99.90;;;;;;5010419;28;20152;-66
2023/06/21 04:07:22;;;;;;;9.73;8.52;;;18.70;99.90;;;;;;5028176;28;20076;-67
2023/06/21 04:09:49;;;;;;;11.65;8.40;;;18.70;99.90;;;;;;5021815;28;20054;-67
2023/06/21 04:12:16;;;;;;;9.70;8.60;;;18.80;99.90;;;;;;5023138;28;20042;-67
2023/06/21 04:14:42;;;;;;;11.25;8.98;;;18.80;99.90;;;;;;5030217;28;20061;-67
2023/06/21 04:17:08;;;;;;;17.00;9.63;;;18.80;99.90;;;;;;5028773;28;20121;-67
2023/06/21 04:19:35;;;;;;;10.32;8.40;;;18.80;99.90;;;;;;5029760;28;20053;-66
2023/06/21 04:22:02;;;;;;;11.82;8.88;;;18.80;99.90;;;;;;5028525;28;20045;-66
2023/06/21 04:24:28;;;;;;;10.25;8.45;;;18.80;99.90;;;;;;5029285;28;20128;-66
2023/06/21 04:26:58;;;;;;;11.48;8.38;;;18.80;99.90;;;;;;5029557;28;20479;-67
2023/06/21 04:29:25;;;;;;;13.07;8.55;;;18.80;99.90;;;;;;5029024;28;20045;-66
2023/06/21 04:31:55;;;;;;;10.80;9.07;;;18.90;99.90;;;;;;5026003;28;20112;-66
2023/06/21 04:34:27;;;;;;;15.40;8.73;;;18.90;99.90;;;;;;5028348;28;20049;-66
2023/06/21 04:36:54;;;;;;;12.13;8.65;;;18.80;99.90;;;;;;5029632;28;20045;-66
2023/06/21 04:39:21;;;;;;;11.88;9.35;;;18.80;99.90;;;;;;5025732;28;20502;-67
2023/06/21 04:41:48;;;;;;;12.13;8.85;;;18.90;99.90;;;;;;5028186;28;20048;-67
2023/06/21 04:44:16;;;;;;;13.57;9.90;;;18.90;99.90;;;;;;5028680;28;20499;-66
2023/06/21 04:46:44;;;;;;;12.23;9.57;;;18.90;99.90;;;;;;5028897;28;20045;-67
2023/06/21 04:49:11;;;;;;;14.98;10.05;;;18.90;99.90;;;;;;5028852;28;20076;-66
2023/06/21 04:51:37;;;;;;;14.18;10.23;;;18.90;99.90;;;;;;5027783;28;20045;-67
2023/06/21 04:54:06;;;;;;;13.68;10.30;;;18.90;99.90;;;;;;5028979;28;20053;-66
2023/06/21 04:56:32;;;;;;;10.60;9.00;;;18.90;99.90;;;;;;5029085;28;20061;-66
2023/06/21 04:58:58;;;;;;;13.75;9.77;;;18.90;99.90;;;;;;5029028;28;20149;-66
2023/06/21 05:01:25;;;;;;;18.25;10.18;;;18.90;99.90;;;;;;5021730;28;20045;-66
2023/06/21 05:03:52;;;;;;;11.50;9.07;;;18.90;99.90;;;;;;5023809;28;20101;-66
2023/06/21 05:06:22;;;;;;;12.68;9.35;;;19.00;99.90;;;;;;5013112;28;20054;-66
2023/06/21 05:08:48;;;;;;;12.38;9.45;;;19.00;99.90;;;;;;5022125;28;20045;-66
2023/06/21 05:11:15;;;;;;;14.50;10.05;;;19.00;99.90;;;;;;5014751;28;20083;-66
2023/06/21 05:13:42;;;;;;;15.38;10.05;;;19.00;99.90;;;;;;5028028;28;20480;-67
2023/06/21 05:16:08;;;;;;;14.93;9.63;;;19.00;99.90;;;;;;5027220;28;20077;-66
2023/06/21 05:18:35;;;;;;;16.02;10.80;;;19.00;99.90;;;;;;5027739;28;20402;-66
2023/06/21 05:21:02;;;;;;;14.25;10.38;;;19.00;99.90;;;;;;5027273;28;20045;-66
2023/06/21 05:23:29;;;;;;;14.40;9.50;;;19.10;99.90;;;;;;5027155;28;20115;-67
2023/06/21 05:25:55;;;;;;;13.50;10.60;;;19.00;99.90;;;;;;5028409;28;20124;-67
2023/06/21 05:28:22;;;;;;;15.07;9.98;;;19.00;99.90;;;;;;5028174;28;20076;-66
2023/06/21 05:30:48;;;;;;;16.50;10.85;;;19.10;99.90;;;;;;5027735;28;20052;-66
2023/06/21 05:33:15;;;;;;;13.48;9.82;;;19.10;99.90;;;;;;5027708;28;20471;-66
2023/06/21 05:35:42;;;;;;;10.65;8.30;;;19.20;99.90;;;;;;5028020;28;20637;-66
2023/06/21 05:38:11;;;;;;;12.95;9.60;;;19.20;99.90;;;;;;5024859;28;20060;-66
2023/06/21 05:40:38;;;;;;;11.00;8.70;;;19.20;99.90;;;;;;5017606;28;20045;-66
2023/06/21 05:43:05;;;;;;;12.52;8.93;;;19.20;99.90;;;;;;5027696;28;20049;-66
2023/06/21 05:45:32;;;;;;;12.90;9.73;;;19.30;99.90;;;;;;5028248;28;20154;-66
2023/06/21 05:47:58;;;;;;;12.60;9.13;;;19.30;99.90;;;;;;5042426;28;20041;-66
2023/06/21 05:50:25;;;;;;;13.85;9.90;;;19.30;99.90;;;;;;5027286;28;20403;-66
2023/06/21 05:52:51;;;;;;;11.88;8.65;;;19.40;99.90;;;;;;5027375;28;20538;-66
2023/06/21 05:55:18;;;;;;;9.43;7.90;;;19.30;99.90;;;;;;5027450;28;20943;-66
2023/06/21 05:57:44;;;;;;;10.70;8.13;;;19.30;99.90;;;;;;5027685;28;20487;-66
2023/06/21 06:00:12;;;;;;;10.70;8.25;;;19.40;99.90;;;;;;5026445;28;20098;-66
2023/06/21 06:02:38;;;;;;;11.60;7.85;;;19.50;99.90;;;;;;5027791;28;20045;-66
2023/06/21 06:05:05;;;;;;;12.02;8.45;;;19.50;99.90;;;;;;5026896;28;20053;-66
2023/06/21 06:07:31;;;;;;;9.30;7.28;;;19.60;99.90;;;;;;5027531;28;20112;-66
2023/06/21 06:09:58;;;;;;;8.50;6.78;;;19.70;99.90;;;;;;5006908;28;20498;-66
2023/06/21 06:12:24;;;;;;;13.25;7.88;;;19.70;99.90;;;;;;5027057;28;20041;-66
2023/06/21 06:14:57;;;;;;;9.02;7.50;;;19.70;99.90;;;;;;5027224;28;20142;-66
2023/06/21 06:17:23;;;;;;;12.40;7.82;;;19.70;99.90;;;;;;5026709;28;20110;-66
2023/06/21 06:19:50;;;;;;;7.75;6.72;;;19.70;99.90;;;;;;5026683;28;20049;-67
2023/06/21 06:22:16;;;;;;;14.60;7.03;;;19.70;99.90;;;;;;5026315;28;20053;-65
2023/06/21 06:24:45;;;;;;;9.55;6.55;;;19.80;99.90;;;;;;5027512;28;20034;-64
2023/06/21 06:27:11;;;;;;;11.93;6.88;;;19.80;99.90;;;;;;5025946;28;20436;-65
2023/06/21 06:29:38;;;;;;;8.80;6.22;;;19.80;99.90;;;;;;5027037;28;20535;-64
2023/06/21 06:32:04;;;;;;;8.65;6.22;;;19.80;99.90;;;;;;5026512;28;20088;-64
2023/06/21 06:34:31;;;;;;;8.18;5.60;;;19.80;99.90;;;;;;5026420;28;20041;-65
2023/06/21 06:36:57;;;;;;;5.65;5.10;;;19.80;99.90;;;;;;5009584;28;20049;-65
2023/06/21 06:39:24;;;;;;;7.88;5.97;;;19.80;99.90;;;;;;5026191;28;20053;-64
2023/06/21 06:41:50;;;;;;;8.90;6.10;;;19.90;99.90;;;;;;5025919;28;20124;-66
2023/06/21 06:44:17;;;;;;;8.23;6.22;;;20.00;99.90;;;;;;5024925;28;20057;-65
2023/06/21 06:46:43;;;;;;;9.98;5.50;;;20.00;99.90;;;;;;5027154;28;20132;-65
2023/06/21 06:49:10;;;;;;;11.57;5.28;;;20.00;99.90;;;;;;5026332;28;20148;-65
2023/06/21 06:51:36;;;;;;;9.50;5.07;;;20.10;99.90;;;;;;5025821;28;20619;-65
2023/06/21 06:54:03;;;;;;;8.50;5.28;;;20.10;99.90;;;;;;5026963;28;20081;-65
2023/06/21 06:56:30;;;;;;;6.93;5.20;;;20.20;99.90;;;;;;5026074;28;20100;-65
2023/06/21 06:58:56;;;;;;;7.50;5.75;;;20.20;99.90;;;;;;5027103;28;20080;-65
2023/06/21 07:01:27;;;;;;;7.50;5.28;;;20.30;99.90;;;;;;5024445;28;20046;-65
2023/06/21 07:03:54;;;;;;;7.15;5.80;;;20.20;99.90;;;;;;5022988;28;20045;-66
2023/06/21 07:06:21;;;;;;;7.05;5.45;;;20.10;99.90;;;;;;5016283;28;20085;-65
2023/06/21 07:08:47;;;;;;;7.05;4.75;;;20.20;99.90;;;;;;5004822;28;20045;-65
2023/06/21 07:11:13;;;;;;;6.45;5.20;;;20.20;99.90;;;;;;5023542;28;20588;-65
2023/06/21 07:13:42;;;;;;;7.60;4.95;;;20.20;99.90;;;;;;5005865;28;20481;-65
2023/06/21 07:16:09;;;;;;;7.45;4.68;;;20.20;99.90;;;;;;5024383;28;20049;-65
2023/06/21 07:18:35;;;;;;;6.75;5.22;;;20.30;99.90;;;;;;5023652;28;20464;-65
2023/06/21 07:21:02;;;;;;;8.50;5.22;;;20.40;99.90;;;;;;5006959;28;20045;-65
2023/06/21 07:23:29;;;;;;;8.50;5.05;;;20.40;99.90;;;;;;5022975;28;20077;-65
2023/06/21 07:26:00;;;;;;;8.30;5.38;;;20.50;99.90;;;;;;5018030;28;20128;-65
2023/06/21 07:28:29;;;;;;;8.23;5.15;;;20.60;99.90;;;;;;5023481;28;20057;-65
2023/06/21 07:30:56;;;;;;;6.78;5.30;;;20.70;99.90;;;;;;5024404;28;20059;-65
2023/06/21 07:33:24;;;;;;;5.50;4.53;;;20.80;99.90;;;;;;5006487;28;20388;-65
2023/06/21 07:35:51;;;;;;;6.43;4.28;;;20.80;99.90;;;;;;5023055;28;20875;-65
2023/06/21 07:38:17;;;;;;;5.72;4.43;;;21.00;99.90;;;;;;4991138;28;20111;-65
2023/06/21 07:40:44;;;;;;;6.97;4.47;;;21.30;99.90;;;;;;5024295;28;20041;-65
2023/06/21 07:43:10;;;;;;;6.45;4.30;;;21.30;99.90;;;;;;5024291;28;20107;-65
2023/06/21 07:45:37;;;;;;;10.00;4.85;;;21.50;99.90;;;;;;5027243;28;20052;-65
2023/06/21 07:48:04;;;;;;;5.70;4.43;;;21.50;99.90;;;;;;5023538;28;20446;-65
2023/06/21 07:50:30;;;;;;;4.50;4.00;;;21.90;99.90;;;;;;5020944;28;20111;-65
2023/06/21 07:52:57;;;;;;;4.80;3.97;;;21.90;99.90;;;;;;5021544;28;20127;-65
2023/06/21 07:55:23;;;;;;;5.30;4.57;;;22.10;99.90;;;;;;5020936;28;20434;-65
2023/06/21 07:57:50;;;;;;;6.13;4.25;;;22.30;99.90;;;;;;5022475;28;20053;-65
2023/06/21 08:00:17;;;;;;;6.38;4.40;;;22.40;99.90;;;;;;5017580;28;20227;-65
2023/06/21 08:02:49;;;;;;;4.70;4.30;;;22.50;99.30;;;;;;5022168;28;20124;-65
2023/06/21 08:05:16;;;;;;;4.13;3.72;;;22.60;98.00;;;;;;5021318;28;20052;-65
2023/06/21 08:07:43;;;;;;;5.20;3.75;;;22.80;98.50;;;;;;5018435;28;20042;-64
2023/06/21 08:10:10;;;;;;;6.80;4.00;;;23.20;96.70;;;;;;5010205;28;20042;-65
2023/06/21 08:12:37;;;;;;;4.63;4.15;;;23.20;89.00;;;;;;5013066;28;21111;-65
2023/06/21 08:15:04;;;;;;;4.55;3.90;;;23.00;80.80;;;;;;5013828;28;20049;-65
2023/06/21 08:17:30;;;;;;;4.00;3.60;;;23.00;87.10;;;;;;5010980;28;20121;-65
2023/06/21 08:19:58;;;;;;;4.75;3.67;;;22.80;80.80;;;;;;5017293;28;20046;-64
2023/06/21 08:22:25;;;;;;;3.90;3.50;;;22.90;86.20;;;;;;5020415;28;20388;-64
2023/06/21 08:24:56;;;;;;;4.05;3.70;;;23.00;87.50;;;;;;5016998;28;20104;-64
2023/06/21 08:27:22;;;;;;;6.53;3.60;;;23.20;75.40;;;;;;5015906;28;20052;-65
2023/06/21 08:29:49;;;;;;;4.28;3.88;;;23.30;79.30;;;;;;5014608;28;20874;-64
2023/06/21 08:32:16;;;;;;;5.20;4.00;;;23.30;80.30;;;;;;5022603;28;20047;-64
2023/06/21 08:34:43;;;;;;;4.78;4.10;;;23.30;83.50;;;;;;5020758;28;20045;-64
2023/06/21 08:37:09;;;;;;;3.58;3.22;;;23.50;74.20;;;;;;5021250;28;20529;-64
2023/06/21 08:39:36;;;;;;;3.63;3.33;;;23.40;72.00;;;;;;5020992;28;20045;-64
2023/06/21 08:42:02;;;;;;;4.32;3.80;;;23.60;75.70;;;;;;5019676;28;20096;-64
2023/06/21 08:44:28;;;;;;;4.35;3.42;;;23.60;71.10;;;;;;5028245;28;20108;-64
2023/06/21 08:46:56;;;;;;;5.38;3.38;;;23.60;63.20;;;;;;5019823;28;20080;-65
2023/06/21 08:49:26;;;;;;;3.28;2.97;;;23.70;63.90;;;;;;5018593;28;20061;-64
2023/06/21 08:51:53;;;;;;;5.20;3.38;;;23.80;56.30;;;;;;5021702;28;20167;-64
2023/06/21 08:54:26;;;;;;;5.53;2.70;;;24.00;58.60;;;;;;5010485;28;20096;-64
2023/06/21 08:56:59;;;;;;;2.60;2.40;;;24.30;48.10;;;;;;5024040;28;20034;-64
2023/06/21 08:59:41;;;;;;;4.10;3.20;;;24.50;49.70;;;;;;5028517;28;20399;-64
2023/06/21 09:02:45;;;;;;;3.38;3.13;;;24.50;27.40;;;;;;5025503;28;20052;-64
2023/06/21 09:05:36;;;;;;;3.15;2.30;;;24.40;37.90;;;;;;5026673;28;20553;-64
2023/06/21 09:08:04;;;;;;;4.53;2.63;;;24.40;29.00;;;;;;5027697;28;20043;-64
2023/06/21 09:10:33;;;;;;;2.78;2.58;;;24.40;18.40;;;;;;5014822;28;20581;-64
2023/06/21 09:13:02;;;;;;;3.03;2.80;;;24.40;18.60;;;;;;5025086;28;20041;-64
2023/06/21 09:15:29;;;;;;;4.07;2.97;;;24.20;26.30;;;;;;5027711;28;20184;-64
2023/06/21 09:17:59;;;;;;;3.72;2.88;;;24.10;27.80;;;;;;5027699;28;20053;-64
2023/06/21 09:20:30;;;;;;;4.63;2.83;;;24.10;37.20;;;;;;5027994;28;20479;-64
2023/06/21 09:23:05;;;;;;;2.70;2.50;;;24.00;31.40;;;;;;5020915;28;20136;-64
2023/06/21 09:25:32;;;;;;;3.47;2.05;;;24.10;28.00;;;;;;5028231;28;20557;-64
2023/06/21 09:27:59;;;;;;;3.42;2.67;;;24.10;29.80;;;;;;5027342;28;20093;-64
2023/06/21 09:30:25;;;;;;;3.60;2.78;;;24.30;29.70;;;;;;5028842;28;20053;-65
2023/06/21 09:32:52;;;;;;;2.90;2.70;;;24.30;23.20;;;;;;5018535;28;20052;-64
2023/06/21 09:35:19;;;;;;;4.05;2.65;;;24.10;15.40;;;;;;5026053;28;20139;-64
2023/06/21 09:37:45;;;;;;;3.58;2.63;;;24.10;23.90;;;;;;5024953;28;20132;-64
2023/06/21 09:40:13;;;;;;;2.35;2.15;;;24.00;19.10;;;;;;5025550;28;20042;-64
2023/06/21 09:42:40;;;;;;;2.95;2.50;;;23.90;22.20;;;;;;5022800;28;20111;-64
2023/06/21 09:45:17;;;;;;;2.88;2.53;;;23.90;20.40;;;;;;5025010;28;20045;-64
2023/06/21 09:47:43;;;;;;;3.15;2.47;;;24.00;21.60;;;;;;5025131;28;20447;-64
2023/06/21 09:50:10;;;;;;;3.92;3.20;;;24.00;20.20;;;;;;5026093;28;20060;-64
2023/06/21 09:52:42;;;;;;;5.68;3.47;;;23.90;28.00;;;;;;5026772;28;20388;-64
2023/06/21 09:55:13;;;;;;;3.45;3.13;;;24.00;28.50;;;;;;5027672;28;20459;-64
2023/06/21 09:57:39;;;;;;;2.40;2.25;;;24.00;21.90;;;;;;5009441;28;20088;-64
2023/06/21 10:00:07;;;;;;;2.83;2.33;;;24.10;20.70;;;;;;5027381;28;20045;-64
2023/06/21 10:02:53;;;;;;;5.20;2.22;;;24.10;18.20;;;;;;5023639;28;20049;-64
2023/06/21 10:05:20;;;;;;;1.83;1.73;;;24.20;23.70;;;;;;5018088;28;20053;-64
2023/06/21 10:07:47;;;;;;;2.72;2.05;;;24.40;18.60;;;;;;5007728;28;20369;-63
2023/06/21 10:10:14;;;;;;;2.15;2.00;;;24.40;12.50;;;;;;5009347;28;20053;-63
2023/06/21 10:12:54;;;;;;;1.98;1.70;;;24.40;19.60;;;;;;5026144;28;20123;-64
2023/06/21 10:15:21;;;;;;;3.17;1.90;;;24.50;10.80;;;;;;5025201;28;20053;-64
2023/06/21 10:17:48;;;;;;;2.97;2.00;;;24.40;3.90;;;;;;5020414;28;20050;-64
2023/06/21 10:20:15;;;;;;;2.78;2.17;;;24.30;6.60;;;;;;5008202;28;20092;-64
2023/06/21 10:22:51;;;;;;;1.63;1.52;;;24.20;8.20;;;;;;5011465;28;20535;-63
2023/06/21 10:25:20;;;;;;;3.70;1.60;;;24.20;5.80;;;;;;5017200;28;20049;-63
2023/06/21 10:27:47;;;;;;;;;;;24.20;7.20;;;;;;5010190;28;20102;-63
2023/06/21 10:30:20;;;;;;;2.70;1.83;;;24.40;11.60;;;;;;5008763;28;19921;-63
2023/06/21 10:32:49;;;;;;;2.50;2.22;;;24.60;11.50;;;;;;4992811;28;20049;-63
2023/06/21 10:35:21;;;;;;;;;;;24.60;6.30;;;;;;5009591;28;20184;-62
2023/06/21 10:38:07;;;;;;;1.83;1.73;;;24.70;5.60;;;;;;5008032;28;20364;-62
2023/06/21 10:40:35;;;;;;;3.35;2.00;;;24.50;2.70;;;;;;5015590;28;20113;-63
2023/06/21 10:43:02;;;;;;;2.33;2.22;;;24.30;4.20;;;;;;5008897;28;20058;-62
2023/06/21 10:45:33;;;;;;;3.05;2.10;;;24.30;9.70;;;;;;5007610;28;20056;-63
2023/06/21 10:48:00;;;;;;;1.73;1.63;;;24.30;11.80;;;;;;5008962;28;20129;-62
2023/06/21 10:50:27;;;;;;;1.40;1.38;;;24.40;7.90;;;;;;5006358;28;20140;-62
2023/06/21 10:52:58;;;;;;;2.28;1.90;;;24.40;3.80;;;;;;5008104;28;20056;-62
2023/06/21 10:55:25;;;;;;;1.80;1.70;;;24.30;7.00;;;;;;5008100;28;20060;-62
2023/06/21 10:57:54;;;;;;;2.17;1.90;;;24.30;10.90;;;;;;5007766;28;20491;-62
2023/06/21 11:00:25;;;;;;;2.20;1.98;;;24.20;3.30;;;;;;5011445;28;20042;-63
2023/06/21 11:02:52;;;;;;;2.70;1.80;;;24.20;5.10;;;;;;5011063;28;20371;-62
2023/06/21 11:05:20;;;;;;;2.47;1.80;;;24.30;5.20;;;;;;5009932;28;20124;-62
2023/06/21 11:07:54;;;;;;;1.40;1.30;;;24.20;1.50;;;;;;5006994;28;20050;-62
2023/06/21 11:10:23;;;;;;;1.50;1.10;;;24.10;1.00;;;;;;5011775;28;20049;-62
2023/06/21 11:12:55;;;;;;;1.58;1.48;;;24.20;3.90;;;;;;5025695;28;20042;-62
2023/06/21 11:15:26;;;;;;;2.10;2.00;;;24.30;1.20;;;;;;5021341;28;20045;-63
2023/06/21 11:18:19;;;;;;;3.28;1.95;;;24.50;1.00;;;;;;5014162;28;20038;-62
2023/06/21 11:20:48;;;;;;;1.75;1.60;;;24.50;1.00;;;;;;5005677;28;20112;-61
2023/06/21 11:23:22;;;;;;;2.10;1.90;;;24.40;1.00;;;;;;5018369;28;20046;-62
2023/06/21 11:26:13;;;;;;;2.17;1.35;;;24.50;8.90;;;;;;5020788;28;20049;-62
2023/06/21 11:28:45;;;;;;;2.60;1.75;;;24.60;2.30;;;;;;5002416;28;20060;-62
2023/06/21 11:31:16;;;;;;;1.75;1.50;;;24.80;6.60;;;;;;5018608;28;20136;-62
2023/06/21 11:33:58;;;;;;;1.70;1.60;;;25.00;6.80;;;;;;5018596;28;20450;-62
2023/06/21 11:36:30;;;;;;;1.33;1.27;;;25.00;1.00;;;;;;5018453;28;20037;-62
2023/06/21 11:39:15;;;;;;;1.50;1.20;;;25.00;1.00;;;;;;5020112;28;20099;-62
2023/06/21 11:41:45;;;;;;;1.52;1.42;;;24.80;1.00;;;;;;5004106;28;20036;-62
2023/06/21 11:44:28;;;;;;;2.97;1.48;;;25.00;1.00;;;;;;5012444;28;20392;-62
2023/06/21 11:47:23;;;;;;;1.30;1.20;;;24.90;1.00;;;;;;5003548;28;20403;-62
2023/06/21 11:49:54;;;;;;;1.85;1.20;;;25.10;1.00;;;;;;5007117;28;20148;-62
2023/06/21 11:52:30;;;;;;;2.17;1.70;;;25.20;1.00;;;;;;5021606;28;20442;-62
2023/06/21 11:54:59;;;;;;;1.58;1.48;;;25.10;1.00;;;;;;5020548;28;20057;-62
2023/06/21 11:57:26;;;;;;;1.20;1.20;;;24.90;1.00;;;;;;5021919;28;20037;-62
2023/06/21 11:59:52;;;;;;;1.40;1.30;;;24.70;1.00;;;;;;5020562;28;20491;-63
2023/06/21 12:02:22;;;;;;;4.30;1.10;;;24.60;1.00;;;;;;5019992;28;20835;-62
2023/06/21 12:04:53;;;;;;;2.00;1.30;;;24.50;1.00;;;;;;5020881;28;20065;-63
2023/06/21 12:07:21;;;;;;;1.17;1.13;;;24.50;1.00;;;;;;5020855;28;20053;-62
2023/06/21 12:09:50;;;;;;;0.70;0.70;;;24.50;1.00;;;;;;4996457;28;20053;-63
2023/06/21 12:12:17;;;;;;;1.10;0.77;;;24.70;1.00;;;;;;5019442;28;20056;-63
2023/06/21 12:14:43;;;;;;;2.17;1.50;;;24.90;1.00;;;;;;5022205;28;20042;-62
2023/06/21 12:17:17;;;;;;;1.48;1.35;;;25.20;1.00;;;;;;5024922;28;20580;-62
2023/06/21 12:19:45;;;;;;;1.77;1.58;;;25.20;1.00;;;;;;5025827;28;20088;-62
2023/06/21 12:22:14;;;;;;;1.40;1.30;;;25.10;1.00;;;;;;5025225;28;20107;-62
2023/06/21 12:24:40;;;;;;;1.70;1.20;;;25.30;1.00;;;;;;5024264;28;20038;-62
2023/06/21 12:27:11;;;;;;;1.30;1.20;;;25.40;1.00;;;;;;5028528;28;20045;-62
2023/06/21 12:29:45;;;;;;;1.20;1.20;;;25.50;1.00;;;;;;5028791;28;20048;-63
2023/06/21 12:32:12;;;;;;;3.80;2.40;;;25.70;1.00;;;;;;5029541;28;20091;-62
2023/06/21 12:34:41;;;;;;;2.53;2.00;;;25.80;1.00;;;;;;5028201;28;20056;-62
2023/06/21 12:37:07;;;;;;;;;;;25.50;3.20;;;;;;5029431;28;20119;-62
2023/06/21 12:39:38;;;;;;;3.03;1.88;;;25.30;1.30;;;;;;5029004;28;19929;-62
2023/06/21 12:42:06;;;;;;;2.60;1.67;;;25.00;7.30;;;;;;5028380;28;20041;-62
2023/06/21 12:44:32;;;;;;;1.80;1.70;;;24.80;16.80;;;;;;5025704;28;20078;-63
2023/06/21 12:47:00;;;;;;;3.22;1.77;;;24.60;22.50;;;;;;5018367;28;20060;-63
2023/06/21 12:49:29;;;;;;;1.80;1.70;;;24.30;25.10;;;;;;5012092;28;20483;-62
2023/06/21 12:51:55;;;;;;;1.90;1.80;;;24.20;33.50;;;;;;5027895;28;20124;-62
2023/06/21 12:54:22;;;;;;;2.33;2.10;;;24.10;32.90;;;;;;5029213;28;20053;-62
2023/06/21 12:56:58;;;;;;;1.80;1.60;;;23.90;24.40;;;;;;5028642;28;20094;-62